Time;durP1;ratioP1;P1;durP2;ratioP2;P2;SDS_P1;SDS_P2;PMS_P1;PMS_P2;Temp;Humidity;BMP_temperature;BMP_pressure;BME280_temperature;BME280_humidity;BME280_pressure;Samples;Min_cycle;Max_cycle;Signal;HPM_P1;HPM_P2
2022/04/02 00:01:41;;;;;;;21.00;6.40;;;;;;;12.46;80.77;98394.34;5111802;27;20034;-34
2022/04/02 00:04:08;;;;;;;23.52;6.57;;;;;;;12.57;79.42;98423.72;5111817;27;20029;-30
2022/04/02 00:06:34;;;;;;;26.50;5.72;;;;;;;12.38;80.20;98429.66;5111512;27;20026;-31
2022/04/02 00:08:59;;;;;;;22.92;6.30;;;;;;;12.17;81.30;98428.06;5128818;27;20023;-34
2022/04/02 00:11:25;;;;;;;24.35;6.30;;;;;;;12.23;81.23;98416.28;5130063;27;20031;-31
2022/04/02 00:13:51;;;;;;;20.52;6.97;;;;;;;11.86;82.08;98404.81;5130344;27;20115;-29
2022/04/02 00:16:16;;;;;;;21.13;7.20;;;;;;;11.62;81.41;98420.53;5111993;27;20023;-29
2022/04/02 00:18:42;;;;;;;23.88;7.68;;;;;;;11.57;81.88;98435.78;5129795;27;20452;-29
2022/04/02 00:21:08;;;;;;;28.80;8.05;;;;;;;11.57;82.54;98431.22;5129842;27;20106;-28
2022/04/02 00:23:40;;;;;;;22.88;6.80;;;;;;;11.61;83.04;98429.63;5128478;27;20567;-28
2022/04/02 00:26:11;;;;;;;27.20;7.05;;;;;;;11.64;83.03;98444.31;5111653;27;20027;-30
2022/04/02 00:28:40;;;;;;;27.17;7.82;;;;;;;11.49;84.02;98446.97;5111259;27;20032;-33
2022/04/02 00:31:10;;;;;;;30.95;7.65;;;;;;;11.55;83.87;98443.25;5129775;27;20034;-31
2022/04/02 00:33:37;;;;;;;30.13;9.23;;;;;;;11.59;84.04;98422.97;5124822;27;20537;-32
2022/04/02 00:36:03;;;;;;;25.70;7.20;;;;;;;11.22;86.18;98445.31;5109367;28;20062;-29
2022/04/02 00:38:29;;;;;;;24.70;7.15;;;;;;;11.54;85.90;98447.78;5107545;28;20487;-29
2022/04/02 00:40:55;;;;;;;17.85;6.88;;;;;;;10.98;86.88;98426.28;5107669;28;20081;-31
2022/04/02 00:43:24;;;;;;;25.00;7.25;;;;;;;11.11;86.63;98439.13;5109323;28;20059;-31
2022/04/02 00:45:51;;;;;;;30.25;7.22;;;;;;;11.25;85.12;98436.78;5108867;28;20027;-31
2022/04/02 00:48:18;;;;;;;18.00;6.47;;;;;;;11.06;86.50;98441.78;5109397;28;20479;-28
2022/04/02 00:50:51;;;;;;;24.30;8.05;;;;;;;11.05;86.07;98422.31;5107288;28;20027;-28
2022/04/02 00:53:16;;;;;;;25.20;7.20;;;;;;;11.34;84.78;98437.88;5109119;28;20614;-29
2022/04/02 00:55:42;;;;;;;22.52;7.90;;;;;;;11.47;83.84;98441.91;5107582;28;20110;-31
2022/04/02 00:58:10;;;;;;;21.10;7.53;;;;;;;11.19;85.61;98451.16;5124674;27;20023;-29
2022/04/02 01:00:36;;;;;;;25.45;8.63;;;;;;;11.19;83.93;98422.63;5108911;28;20042;-31
2022/04/02 01:03:01;;;;;;;18.15;8.43;;;;;;;11.12;84.28;98426.63;5108383;28;20028;-36
2022/04/02 01:05:27;;;;;;;25.48;8.40;;;;;;;11.31;83.77;98435.72;5108330;28;20466;-30
2022/04/02 01:07:53;;;;;;;21.95;10.25;;;;;;;10.84;87.22;98424.09;5108692;28;20020;-33
2022/04/02 01:10:19;;;;;;;29.50;10.20;;;;;;;11.01;87.07;98433.75;5108481;28;20027;-30
2022/04/02 01:12:45;;;;;;;28.25;8.27;;;;;;;10.91;87.13;98434.56;5108605;28;20110;-29
2022/04/02 01:15:10;;;;;;;24.67;9.18;;;;;;;11.12;86.11;98435.41;5108268;28;20109;-33
2022/04/02 01:17:40;;;;;;;24.50;8.13;;;;;;;11.23;84.69;98429.03;5108416;28;20042;-29
2022/04/02 01:20:08;;;;;;;29.10;9.10;;;;;;;10.98;86.39;98418.28;5108221;28;20060;-33
2022/04/02 01:22:34;;;;;;;;;;;;;;;10.62;87.96;98426.97;5107503;28;20076;-30
2022/04/02 01:24:59;;;;;;;33.42;10.52;;;;;;;10.83;85.92;98422.50;5107321;28;19907;-31
2022/04/02 01:27:25;;;;;;;43.33;13.27;;;;;;;10.97;85.78;98438.84;5106802;28;20074;-29
2022/04/02 01:29:51;;;;;;;36.83;15.05;;;;;;;10.78;87.57;98435.81;5108341;28;20896;-29
2022/04/02 01:32:16;;;;;;;48.33;16.08;;;;;;;10.64;88.69;98406.16;5108279;28;20041;-31
2022/04/02 01:34:41;;;;;;;37.30;14.75;;;;;;;10.41;91.03;98395.91;5126916;27;20058;-33
2022/04/02 01:37:07;;;;;;;38.78;13.13;;;;;;;10.64;90.01;98394.69;5128780;27;20030;-30
2022/04/02 01:39:33;;;;;;;35.42;13.60;;;;;;;10.94;88.21;98417.22;5110276;28;20069;-29
2022/04/02 01:42:05;;;;;;;44.88;18.77;;;;;;;11.31;86.74;98432.25;5128541;27;20027;-34
2022/04/02 01:44:30;;;;;;;38.17;15.43;;;;;;;11.11;87.18;98439.13;5128925;27;20224;-28
2022/04/02 01:46:56;;;;;;;35.58;13.73;;;;;;;11.18;86.21;98445.03;5128091;28;20782;-29
2022/04/02 01:49:21;;;;;;;30.58;11.95;;;;;;;11.22;86.69;98429.31;5128540;28;20054;-29
2022/04/02 01:51:47;;;;;;;29.92;10.68;;;;;;;11.23;85.90;98420.22;5128673;28;20035;-29
2022/04/02 01:54:12;;;;;;;31.60;11.10;;;;;;;11.07;84.56;98406.03;5128535;28;20038;-31
2022/04/02 01:56:38;;;;;;;27.75;9.85;;;;;;;11.01;85.54;98415.91;5128566;28;20031;-31
2022/04/02 01:59:03;;;;;;;31.38;12.27;;;;;;;11.12;85.87;98440.75;5128269;28;20027;-29
2022/04/02 02:01:29;;;;;;;30.30;10.75;;;;;;;11.12;85.65;98462.09;5128423;28;20034;-29
2022/04/02 02:03:54;;;;;;;28.15;10.60;;;;;;;10.72;84.32;98436.84;5128252;28;20027;-29
2022/04/02 02:06:19;;;;;;;21.48;7.40;;;;;;;10.64;84.94;98464.00;5128478;28;20029;-29
2022/04/02 02:08:45;;;;;;;21.80;8.18;;;;;;;10.77;85.27;98455.53;5128625;28;20037;-29
2022/04/02 02:11:10;;;;;;;22.00;7.57;;;;;;;10.67;85.11;98455.50;5128070;28;20050;-34
2022/04/02 02:13:36;;;;;;;22.95;7.05;;;;;;;10.54;86.13;98451.44;5128484;28;20470;-32
2022/04/02 02:16:01;;;;;;;22.25;6.82;;;;;;;10.61;85.01;98464.53;5109938;28;20475;-32
2022/04/02 02:18:26;;;;;;;25.83;7.10;;;;;;;10.57;85.08;98444.78;5128038;28;20394;-31
2022/04/02 02:20:52;;;;;;;16.65;7.13;;;;;;;10.33;85.96;98450.50;5128106;28;20406;-31
2022/04/02 02:23:17;;;;;;;21.73;8.63;;;;;;;9.93;88.31;98449.13;5128414;28;20027;-33
2022/04/02 02:25:43;;;;;;;25.15;10.63;;;;;;;10.12;87.29;98443.41;5128291;28;20019;-31
2022/04/02 02:28:08;;;;;;;27.80;10.48;;;;;;;10.24;85.97;98436.03;5109501;28;20031;-30
2022/04/02 02:30:34;;;;;;;22.50;8.23;;;;;;;10.23;84.17;98466.38;5128310;28;20019;-28
2022/04/02 02:35:49;;;;;;;21.35;7.75;;;;;;;10.19;86.13;98462.63;5129067;27;20046;-31
2022/04/02 02:38:15;;;;;;;20.48;6.30;;;;;;;9.82;87.53;98476.69;5132481;27;20406;-29
2022/04/02 02:40:41;;;;;;;15.90;7.53;;;;;;;9.86;88.06;98483.13;5113411;27;20027;-29
2022/04/02 02:43:08;;;;;;;19.50;6.78;;;;;;;10.22;86.74;98492.22;5131761;27;20091;-28
2022/04/02 02:45:34;;;;;;;21.42;6.03;;;;;;;9.91;86.27;98485.84;5130306;27;20027;-31
2022/04/02 02:48:01;;;;;;;19.00;7.03;;;;;;;9.76;87.13;98467.06;5113527;27;20038;-29
2022/04/02 02:50:27;;;;;;;18.23;5.35;;;;;;;9.39;89.52;98489.06;5113242;27;20455;-29
2022/04/02 02:52:53;;;;;;;18.85;5.78;;;;;;;9.35;89.46;98506.56;5131750;27;20105;-30
2022/04/02 02:55:18;;;;;;;12.10;5.28;;;;;;;9.59;88.19;98505.22;5113094;27;20026;-29
2022/04/02 02:57:45;;;;;;;15.23;5.38;;;;;;;9.40;88.84;98501.31;5131495;27;20065;-32
2022/04/02 03:00:13;;;;;;;20.83;5.65;;;;;;;9.30;89.49;98496.69;5112564;27;20027;-31
2022/04/02 03:02:39;;;;;;;19.10;5.83;;;;;;;9.29;88.54;98502.25;5113075;27;20035;-29
2022/04/02 03:05:12;;;;;;;15.65;6.20;;;;;;;9.39;87.32;98502.34;5129888;27;20038;-32
2022/04/02 03:07:48;;;;;;;14.52;5.38;;;;;;;9.37;86.17;98507.13;5113005;27;20083;-29
2022/04/02 03:10:18;;;;;;;22.17;8.82;;;;;;;9.33;85.45;98506.00;5112782;27;20034;-31
2022/04/02 03:12:46;;;;;;;19.00;6.10;;;;;;;9.20;86.54;98523.97;5112746;27;20042;-31
2022/04/02 03:15:12;;;;;;;18.77;7.10;;;;;;;8.92;85.33;98521.47;5112638;27;20513;-36
2022/04/02 03:17:38;;;;;;;14.30;6.25;;;;;;;8.78;87.11;98521.00;5112771;27;20060;-33
2022/04/02 03:20:05;;;;;;;18.75;7.35;;;;;;;8.35;89.16;98512.66;5112767;27;20141;-38
2022/04/02 03:22:39;;;;;;;27.13;7.88;;;;;;;8.73;88.46;98497.03;5112526;27;20092;-30
2022/04/02 03:25:06;;;;;;;22.70;7.03;;;;;;;8.85;86.88;98501.19;5130744;27;20482;-31
2022/04/02 03:27:31;;;;;;;20.92;7.97;;;;;;;9.20;85.52;98523.97;5112281;27;20463;-29
2022/04/02 03:29:57;;;;;;;18.83;6.78;;;;;;;8.60;87.43;98536.19;5131034;27;20034;-30
2022/04/02 03:32:22;;;;;;;17.95;7.25;;;;;;;8.71;86.45;98544.31;5130890;27;20483;-29
2022/04/02 03:34:47;;;;;;;21.75;7.00;;;;;;;8.97;86.35;98542.78;5130629;27;20470;-31
2022/04/02 03:37:14;;;;;;;18.73;8.40;;;;;;;9.33;85.14;98532.63;5112373;27;20792;-30
2022/04/02 03:39:41;;;;;;;18.55;7.70;;;;;;;8.83;84.92;98529.88;5130564;27;20026;-30
2022/04/02 03:42:06;;;;;;;17.63;7.70;;;;;;;8.82;84.21;98544.19;5112046;27;20031;-30
2022/04/02 03:44:33;;;;;;;19.35;7.05;;;;;;;8.89;84.39;98560.00;5112188;27;20027;-29
2022/04/02 03:47:08;;;;;;;14.95;6.28;;;;;;;8.52;86.67;98549.06;5130289;27;20076;-30
2022/04/02 03:49:34;;;;;;;17.65;6.55;;;;;;;8.38;88.33;98570.63;5130883;27;20038;-30
2022/04/02 03:52:00;;;;;;;20.50;7.30;;;;;;;8.50;87.67;98578.56;5112063;27;20166;-29
2022/04/02 03:54:25;;;;;;;18.92;6.93;;;;;;;8.66;88.39;98590.19;5130475;27;20497;-33
2022/04/02 03:56:51;;;;;;;17.58;7.55;;;;;;;9.12;86.92;98585.56;5130300;27;20046;-29
2022/04/02 03:59:16;;;;;;;15.70;7.22;;;;;;;9.14;86.21;98578.13;5130452;27;20052;-30
2022/04/02 04:01:42;;;;;;;20.10;7.53;;;;;;;8.89;87.71;98567.13;5130331;27;20054;-29
2022/04/02 04:04:07;;;;;;;16.00;6.97;;;;;;;9.11;87.01;98599.09;5130292;27;20027;-29
2022/04/02 04:06:34;;;;;;;22.98;7.00;;;;;;;9.07;87.18;98601.44;5111810;27;20054;-29
2022/04/02 04:09:00;;;;;;;16.60;6.78;;;;;;;9.04;87.45;98601.94;5130194;27;20043;-31
2022/04/02 04:11:26;;;;;;;18.25;7.13;;;;;;;9.20;88.61;98611.72;5111983;27;20031;-35
2022/04/02 04:13:53;;;;;;;25.02;9.82;;;;;;;8.93;88.78;98624.09;5111805;27;20114;-34
2022/04/02 04:16:19;;;;;;;18.48;6.95;;;;;;;8.42;88.94;98618.81;5111583;27;20030;-28
2022/04/02 04:18:45;;;;;;;34.42;17.65;;;;;;;8.52;87.70;98597.72;5111705;27;20149;-28
2022/04/02 04:21:14;;;;;;;24.35;9.20;;;;;;;8.65;89.25;98629.28;5129567;27;20133;-30
2022/04/02 04:23:40;;;;;;;27.83;13.45;;;;;;;8.59;89.62;98632.09;5111704;27;20030;-32
2022/04/02 04:26:05;;;;;;;159.82;76.85;;;;;;;8.49;89.78;98629.28;5129982;27;20027;-32
2022/04/02 04:28:31;;;;;;;35.15;17.45;;;;;;;8.72;88.04;98634.41;5111632;27;20058;-32
2022/04/02 04:30:56;;;;;;;28.27;12.20;;;;;;;8.84;87.62;98624.50;5129736;27;20502;-34
2022/04/02 04:33:22;;;;;;;26.15;10.10;;;;;;;8.88;87.41;98622.16;5130022;27;20043;-31
2022/04/02 04:35:47;;;;;;;22.92;12.77;;;;;;;8.92;87.77;98665.84;5129788;27;20074;-29
2022/04/02 04:38:13;;;;;;;29.20;14.38;;;;;;;8.64;88.32;98648.09;5129704;27;20034;-30
2022/04/02 04:40:38;;;;;;;22.25;9.70;;;;;;;8.41;89.03;98639.22;5130015;27;20038;-29
2022/04/02 04:43:04;;;;;;;21.60;8.98;;;;;;;8.33;89.86;98652.88;5129352;27;20478;-32
2022/04/02 04:45:29;;;;;;;20.77;8.30;;;;;;;8.43;89.25;98658.38;5129875;27;20643;-32
2022/04/02 04:47:55;;;;;;;28.23;13.48;;;;;;;8.75;88.44;98644.56;5129494;27;20028;-30
2022/04/02 04:50:20;;;;;;;39.55;23.77;;;;;;;9.10;87.83;98667.44;5110754;27;20035;-29
2022/04/02 04:52:46;;;;;;;41.83;20.70;;;;;;;9.38;85.57;98671.03;5129490;27;20030;-29
2022/04/02 04:55:11;;;;;;;32.75;19.33;;;;;;;9.30;87.76;98682.09;5129446;27;20566;-29
2022/04/02 04:57:36;;;;;;;45.67;23.98;;;;;;;9.21;88.90;98687.84;5129288;27;20051;-35
2022/04/02 05:00:05;;;;;;;29.65;17.90;;;;;;;9.36;88.34;98683.78;5110766;27;20042;-33
2022/04/02 05:02:31;;;;;;;38.67;19.70;;;;;;;9.51;87.25;98677.84;5129474;27;20045;-28
2022/04/02 05:04:56;;;;;;;34.55;20.13;;;;;;;9.91;86.34;98682.06;5110270;27;20560;-29
2022/04/02 05:07:22;;;;;;;38.55;20.80;;;;;;;9.97;86.56;98662.44;5129387;27;20031;-31
2022/04/02 05:09:48;;;;;;;39.25;21.17;;;;;;;10.04;86.00;98671.84;5110825;27;20681;-29
2022/04/02 05:12:15;;;;;;;37.40;20.52;;;;;;;10.22;86.18;98683.25;5129294;27;20055;-31
2022/04/02 05:14:40;;;;;;;40.40;24.17;;;;;;;10.45;85.26;98677.63;5110641;27;20034;-29
2022/04/02 05:17:06;;;;;;;38.42;22.27;;;;;;;10.62;84.57;98668.72;5093404;27;20031;-29
2022/04/02 05:19:31;;;;;;;45.17;21.52;;;;;;;10.92;84.04;98678.06;5128943;27;20459;-28
2022/04/02 05:21:57;;;;;;;36.53;19.27;;;;;;;10.86;84.23;98680.66;5129320;27;20395;-30
2022/04/02 05:24:23;;;;;;;38.45;18.52;;;;;;;11.03;83.48;98693.06;5110414;27;20031;-34
2022/04/02 05:26:49;;;;;;;32.90;16.70;;;;;;;11.27;83.30;98698.84;5128464;27;20384;-33
2022/04/02 05:29:14;;;;;;;40.13;19.90;;;;;;;11.17;82.81;98682.75;5128696;27;20536;-30
2022/04/02 05:31:43;;;;;;;34.40;15.48;;;;;;;10.86;84.49;98703.88;5128728;27;20023;-34
2022/04/02 05:34:09;;;;;;;31.42;14.13;;;;;;;10.73;86.09;98699.75;5109848;27;20074;-32
2022/04/02 05:36:37;;;;;;;32.97;13.27;;;;;;;11.00;86.54;98714.91;5129017;27;20031;-32
2022/04/02 05:39:02;;;;;;;26.63;10.02;;;;;;;11.37;84.37;98724.78;5109931;28;20118;-29
2022/04/02 05:41:29;;;;;;;37.08;10.10;;;;;;;11.48;84.58;98702.44;5128551;27;20097;-32
2022/04/02 05:43:55;;;;;;;31.63;12.93;;;;;;;11.49;87.07;98714.72;5110247;27;20051;-31
2022/04/02 05:46:20;;;;;;;32.10;12.80;;;;;;;11.37;86.24;98698.09;5128614;27;20055;-29
2022/04/02 05:48:46;;;;;;;29.27;9.23;;;;;;;11.71;85.90;98713.78;5109870;28;20030;-33
2022/04/02 05:51:11;;;;;;;35.42;13.85;;;;;;;12.00;85.91;98707.00;5128592;28;20030;-36
2022/04/02 05:53:37;;;;;;;36.17;11.02;;;;;;;12.08;85.52;98719.06;5128603;28;20184;-30
2022/04/02 05:56:02;;;;;;;39.65;14.02;;;;;;;12.33;83.71;98715.66;5128750;28;20042;-29
2022/04/02 05:58:28;;;;;;;46.80;20.50;;;;;;;12.24;82.92;98715.38;5110026;28;20047;-33
2022/04/02 06:00:54;;;;;;;39.38;16.67;;;;;;;12.37;82.73;98710.59;5128424;28;20030;-32
2022/04/02 06:03:20;;;;;;;42.38;18.30;;;;;;;12.52;84.50;98712.50;5128517;28;20048;-29
2022/04/02 06:05:48;;;;;;;42.38;18.52;;;;;;;12.53;84.54;98706.09;5109919;28;20115;-29
2022/04/02 06:08:15;;;;;;;38.78;17.65;;;;;;;12.39;84.03;98703.13;5110051;28;20038;-37
2022/04/02 06:10:41;;;;;;;38.60;16.10;;;;;;;12.27;86.41;98700.69;5112489;27;20027;-29
2022/04/02 06:13:07;;;;;;;35.85;15.68;;;;;;;12.73;84.97;98700.78;5132634;27;20168;-29
2022/04/02 06:15:34;;;;;;;43.13;18.02;;;;;;;12.97;84.87;98721.63;5132557;27;20031;-28
2022/04/02 06:17:59;;;;;;;43.22;18.92;;;;;;;13.16;85.16;98717.38;5113841;27;20497;-33
2022/04/02 06:20:25;;;;;;;36.42;17.00;;;;;;;13.31;84.77;98708.53;5132820;27;20056;-30
2022/04/02 06:22:50;;;;;;;43.75;20.08;;;;;;;13.60;83.98;98714.09;5132326;27;20027;-30
2022/04/02 06:25:16;;;;;;;47.30;21.80;;;;;;;13.73;82.45;98698.53;5132256;27;20510;-30
2022/04/02 06:27:46;;;;;;;46.03;24.35;;;;;;;14.08;82.03;98711.00;5132446;27;20019;-29
2022/04/02 06:30:13;;;;;;;51.50;24.67;;;;;;;14.10;80.36;98724.13;5113519;27;20802;-33
2022/04/02 06:32:39;;;;;;;43.75;21.15;;;;;;;14.25;80.49;98724.84;5131652;27;20540;-30
2022/04/02 06:35:05;;;;;;;47.65;21.05;;;;;;;14.47;79.48;98711.06;5132138;27;20039;-32
2022/04/02 06:37:35;;;;;;;36.65;16.63;;;;;;;14.62;79.26;98720.13;5132235;27;20031;-29
2022/04/02 06:40:01;;;;;;;42.58;23.15;;;;;;;14.77;80.21;98712.00;5113527;27;20080;-32
2022/04/02 06:42:27;;;;;;;44.67;22.83;;;;;;;15.01;79.29;98716.63;5113659;27;20087;-29
2022/04/02 06:44:52;;;;;;;34.95;16.02;;;;;;;15.17;77.77;98702.00;5131777;27;20023;-30
2022/04/02 06:47:17;;;;;;;31.50;13.38;;;;;;;15.31;76.24;98698.66;5131622;27;20023;-32
2022/04/02 06:49:43;;;;;;;28.90;12.18;;;;;;;15.39;76.61;98709.59;5132074;27;20088;-28
2022/04/02 06:52:08;;;;;;;28.80;12.38;;;;;;;15.59;74.99;98710.44;5132097;27;20033;-30
2022/04/02 06:54:34;;;;;;;36.50;18.15;;;;;;;15.99;73.58;98706.53;5132060;27;20025;-29
2022/04/02 06:56:59;;;;;;;37.15;19.58;;;;;;;16.09;72.40;98696.75;5131647;27;20035;-31
2022/04/02 06:59:25;;;;;;;27.00;10.85;;;;;;;16.20;71.63;98708.97;5113203;27;20035;-35
2022/04/02 07:01:51;;;;;;;24.30;10.98;;;;;;;16.22;70.99;98712.97;5131689;27;20459;-31
2022/04/02 07:04:16;;;;;;;22.25;9.18;;;;;;;16.40;70.34;98719.44;5112975;27;20547;-32
2022/04/02 07:06:45;;;;;;;22.00;11.20;;;;;;;16.67;69.01;98718.00;5131694;27;20076;-29
2022/04/02 07:09:12;;;;;;;20.08;10.70;;;;;;;17.01;67.85;98733.13;5131243;27;20042;-31
2022/04/02 07:11:37;;;;;;;31.30;13.75;;;;;;;17.11;66.95;98738.34;5131542;27;20038;-33
2022/04/02 07:14:03;;;;;;;32.10;17.38;;;;;;;17.38;68.18;98742.22;5131248;27;20051;-37
2022/04/02 07:16:28;;;;;;;37.50;17.05;;;;;;;17.44;68.62;98747.22;5131597;27;20114;-30
2022/04/02 07:18:55;;;;;;;25.92;11.25;;;;;;;17.22;62.78;98730.91;5131340;27;20464;-29
2022/04/02 07:21:25;;;;;;;28.65;10.65;;;;;;;17.50;62.68;98739.84;5111811;27;20031;-30
2022/04/02 07:23:51;;;;;;;22.85;9.60;;;;;;;17.55;64.14;98712.81;5112727;27;20102;-32
2022/04/02 07:26:18;;;;;;;19.90;6.90;;;;;;;17.47;60.97;98743.94;5112558;27;20030;-29
2022/04/02 07:28:45;;;;;;;14.57;4.93;;;;;;;17.53;57.02;98719.59;5112514;27;20483;-29
2022/04/02 07:31:10;;;;;;;15.27;3.83;;;;;;;17.74;54.17;98739.69;5112455;27;20037;-33
2022/04/02 07:33:36;;;;;;;11.65;2.85;;;;;;;17.66;53.26;98735.78;5131168;27;20047;-32
2022/04/02 07:36:16;;;;;;;8.10;2.15;;;;;;;17.93;49.43;98747.72;5131113;27;20054;-31
2022/04/02 07:39:02;;;;;;;8.45;2.70;;;;;;;18.15;52.60;98732.72;5112564;27;20029;-30
2022/04/02 07:41:43;;;;;;;9.63;3.58;;;;;;;18.20;53.76;98713.72;5112416;27;20046;-29
2022/04/02 07:44:42;;;;;;;16.65;4.55;;;;;;;18.43;55.63;98722.69;5112286;27;20023;-29
2022/04/02 07:47:13;;;;;;;13.90;3.78;;;;;;;18.66;55.49;98731.63;5104545;27;20174;-29
2022/04/02 07:49:41;;;;;;;13.63;4.45;;;;;;;18.79;51.43;98733.50;5111714;27;20031;-30
2022/04/02 07:52:09;;;;;;;13.90;4.15;;;;;;;18.81;51.22;98728.59;5130952;27;20027;-30
2022/04/02 07:54:39;;;;;;;11.43;3.72;;;;;;;18.95;49.37;98738.56;5130298;27;20117;-32
2022/04/02 07:57:08;;;;;;;11.77;3.25;;;;;;;18.83;49.91;98729.06;5130391;27;20019;-29
2022/04/02 07:59:40;;;;;;;13.23;4.40;;;;;;;19.47;51.01;98741.56;5111868;27;20027;-30
2022/04/02 08:02:36;;;;;;;10.48;4.10;;;;;;;19.25;54.03;98731.59;5111427;27;20030;-33
2022/04/02 08:04:56;;;;;;;9.48;3.50;;;;;;;19.39;46.92;98753.13;5129688;27;20027;-29
2022/04/02 08:07:22;;;;;;;11.77;3.38;;;;;;;19.18;48.91;98737.44;5111618;27;20026;-34
2022/04/02 08:09:49;;;;;;;11.02;3.65;;;;;;;19.70;49.75;98749.66;5111625;27;20027;-34
2022/04/02 08:12:16;;;;;;;12.65;3.40;;;;;;;19.36;47.77;98732.94;5130413;27;20402;-29
2022/04/02 08:14:41;;;;;;;10.88;3.35;;;;;;;19.56;48.52;98731.59;5111159;27;20892;-29
2022/04/02 08:17:08;;;;;;;14.38;3.50;;;;;;;19.92;48.18;98754.22;5130293;27;20035;-32
2022/04/02 08:19:38;;;;;;;11.65;3.28;;;;;;;20.10;43.94;98736.13;5111738;27;20031;-30
2022/04/02 08:22:04;;;;;;;7.80;2.72;;;;;;;20.47;44.94;98741.00;5111344;27;20027;-28
2022/04/02 08:24:30;;;;;;;4.20;1.40;;;;;;;20.36;37.55;98745.09;5129904;27;20023;-29
2022/04/02 08:27:11;;;;;;;3.10;1.48;;;;;;;20.33;39.46;98753.88;5129526;27;20023;-33
2022/04/02 08:29:57;;;;;;;5.25;1.33;;;;;;;20.56;38.29;98734.78;5129913;27;20046;-35
2022/04/02 08:32:26;;;;;;;10.93;2.38;;;;;;;21.39;41.64;98750.03;5111296;27;20061;-33
2022/04/02 08:35:08;;;;;;;4.72;2.33;;;;;;;21.34;39.46;98753.72;5129533;27;20047;-33
2022/04/02 08:37:36;;;;;;;6.57;2.20;;;;;;;21.12;40.67;98745.78;5110911;27;20091;-33
2022/04/02 08:40:37;;;;;;;7.65;2.67;;;;;;;21.09;43.03;98741.81;5129661;27;20515;-31
2022/04/02 08:43:15;;;;;;;3.95;1.40;;;;;;;21.10;37.74;98740.69;5129370;27;20034;-29
2022/04/02 08:45:55;;;;;;;3.60;1.58;;;;;;;21.13;36.89;98739.28;5110718;27;20055;-30
2022/04/02 08:48:24;;;;;;;6.40;1.50;;;;;;;21.35;36.69;98743.69;5111075;27;20047;-31
2022/04/02 08:51:28;;;;;;;4.00;1.38;;;;;;;21.35;36.13;98738.25;5110829;27;20027;-29
2022/04/02 08:54:06;;;;;;;5.18;1.67;;;;;;;21.73;39.58;98732.09;5076998;27;20031;-30
2022/04/02 08:56:38;;;;;;;5.78;2.03;;;;;;;21.18;38.36;98734.47;5110917;27;20076;-28
2022/04/02 08:59:05;;;;;;;4.60;1.73;;;;;;;21.18;37.31;98712.78;5129363;27;20141;-29
2022/04/02 09:02:15;;;;;;;5.78;1.92;;;;;;;21.04;34.74;98740.09;5110853;27;20031;-31
2022/04/02 09:04:52;;;;;;;3.63;1.40;;;;;;;21.35;36.97;98736.34;5128924;27;20112;-31
2022/04/02 09:08:15;;;;;;;6.13;1.45;;;;;;;21.40;35.71;98735.38;5129271;27;20038;-32
2022/04/02 09:11:23;;;;;;;2.50;1.20;;;;;;;21.38;35.98;98734.91;5065588;28;20067;-30
2022/04/02 09:13:59;;;;;;;2.65;1.27;;;;;;;21.58;34.58;98730.75;4966580;28;20049;-37
2022/04/02 09:16:28;;;;;;;4.05;1.30;;;;;;;21.78;34.86;98721.06;5004459;28;20416;-29
2022/04/02 09:19:09;;;;;;;3.05;1.15;;;;;;;21.51;32.92;98725.00;5085377;27;20039;-33
2022/04/02 09:21:59;;;;;;;6.20;1.60;;;;;;;22.14;34.29;98727.91;5110469;27;20038;-31
2022/04/02 09:24:56;;;;;;;3.40;1.00;;;;;;;21.86;31.20;98733.78;5128852;27;20023;-35
2022/04/02 09:27:28;;;;;;;6.22;1.88;;;;;;;22.52;33.44;98725.16;5110032;28;20027;-30
2022/04/02 09:30:03;;;;;;;5.57;1.52;;;;;;;22.73;32.96;98727.06;5110169;27;20035;-32
2022/04/02 09:32:28;;;;;;;3.60;1.45;;;;;;;22.93;33.83;98728.97;5109986;27;20023;-31
2022/04/02 09:35:06;;;;;;;3.50;1.40;;;;;;;22.80;33.53;98733.56;5128618;27;20581;-33
2022/04/02 09:37:53;;;;;;;4.35;1.50;;;;;;;23.31;34.96;98719.03;5128747;27;20034;-32
2022/04/02 09:40:22;;;;;;;4.55;1.40;;;;;;;23.53;34.13;98713.16;5128706;27;20034;-32
2022/04/02 09:42:51;;;;;;;3.50;1.42;;;;;;;23.76;31.24;98710.00;5109718;27;20038;-31
2022/04/02 09:45:18;;;;;;;4.60;1.60;;;;;;;23.78;32.55;98707.78;5109571;28;20026;-30
2022/04/02 09:48:24;;;;;;;2.75;1.30;;;;;;;23.45;31.99;98716.78;5109808;28;20027;-33
2022/04/02 09:50:55;;;;;;;4.65;1.45;;;;;;;23.12;30.22;98705.94;5109610;28;20128;-36
2022/04/02 09:53:29;;;;;;;5.07;1.17;;;;;;;23.80;29.57;98717.22;5110116;28;20027;-33
2022/04/02 09:56:25;;;;;;;2.42;1.13;;;;;;;23.77;31.30;98717.09;5128242;28;20038;-29
2022/04/02 09:59:38;;;;;;;5.82;1.70;;;;;;;24.10;31.28;98708.00;5128169;28;20122;-29
2022/04/02 10:02:06;;;;;;;5.35;1.90;;;;;;;24.16;30.54;98693.03;5064806;28;20037;-31
2022/04/02 10:05:03;;;;;;;4.53;1.55;;;;;;;23.97;32.60;98705.28;5102775;28;20542;-29
2022/04/02 10:07:38;;;;;;;3.95;1.35;;;;;;;24.45;30.85;98703.63;5128120;28;20038;-30
2022/04/02 10:10:03;;;;;;;5.10;1.60;;;;;;;24.34;30.07;98699.00;5128606;28;20197;-30
2022/04/02 10:12:30;;;;;;;5.10;2.00;;;;;;;24.93;29.70;98700.28;5128212;28;20698;-40
2022/04/02 10:14:57;;;;;;;3.65;1.60;;;;;;;24.89;29.30;98685.78;5109732;28;20088;-30
2022/04/02 10:17:32;;;;;;;5.25;1.45;;;;;;;24.64;29.11;98705.78;5127865;28;20027;-32
2022/04/02 10:19:59;;;;;;;6.45;2.00;;;;;;;25.29;31.84;98707.53;5109892;28;20034;-29
2022/04/02 10:22:44;;;;;;;4.28;1.92;;;;;;;24.74;32.38;98692.78;5109844;28;20035;-37
2022/04/02 10:25:13;;;;;;;3.97;1.42;;;;;;;24.59;31.11;98673.28;5128015;28;20073;-31
2022/04/02 10:27:41;;;;;;;5.18;1.88;;;;;;;25.13;28.21;98672.03;5127949;28;20023;-35
2022/04/02 10:30:11;;;;;;;5.90;1.40;;;;;;;25.50;26.66;98671.81;5109208;28;20606;-29
2022/04/02 10:32:53;;;;;;;2.70;1.10;;;;;;;25.63;27.58;98667.84;5109380;28;20023;-30
2022/04/02 10:35:21;;;;;;;3.15;1.20;;;;;;;25.54;28.15;98645.41;5109710;28;20578;-32
2022/04/02 10:38:09;;;;;;;2.17;0.80;;;;;;;25.52;24.42;98644.16;5109508;28;20035;-29
2022/04/02 10:40:50;;;;;;;3.58;0.88;;;;;;;25.67;25.27;98663.25;5109382;28;20035;-31
2022/04/02 10:43:29;;;;;;;3.33;1.30;;;;;;;25.48;25.18;98676.84;5127987;28;20030;-30
2022/04/02 10:45:56;;;;;;;2.55;0.93;;;;;;;25.51;25.07;98659.75;5109538;28;20076;-30
2022/04/02 10:48:32;;;;;;;4.97;1.27;;;;;;;25.60;28.24;98657.63;5109307;28;20027;-30
2022/04/02 10:50:57;;;;;;;3.45;1.27;;;;;;;25.19;28.06;98648.81;5127544;28;20027;-29
2022/04/02 10:53:24;;;;;;;3.80;1.00;;;;;;;24.88;28.48;98649.53;5127587;28;20025;-29
2022/04/02 10:55:59;;;;;;;4.43;1.25;;;;;;;23.78;28.22;98647.91;5109282;28;20088;-38
2022/04/02 10:58:25;;;;;;;3.55;1.10;;;;;;;23.52;28.52;98640.03;5112539;27;20118;-34
2022/04/02 11:00:56;;;;;;;2.83;0.90;;;;;;;23.54;29.06;98633.16;5131408;27;20170;-31
2022/04/02 11:03:36;;;;;;;3.42;1.15;;;;;;;23.84;29.76;98646.53;5112770;27;20046;-32
2022/04/02 11:06:02;;;;;;;4.20;1.10;;;;;;;24.18;30.03;98628.09;5112883;27;20046;-34
2022/04/02 11:08:31;;;;;;;4.80;1.40;;;;;;;24.76;28.40;98636.75;5131405;27;20376;-30
2022/04/02 11:11:18;;;;;;;2.75;1.45;;;;;;;24.99;26.23;98634.25;5112645;27;20031;-35
2022/04/02 11:13:43;;;;;;;3.05;1.27;;;;;;;24.92;28.96;98622.38;5130477;27;20043;-32
2022/04/02 11:16:16;;;;;;;2.13;0.90;;;;;;;25.51;25.53;98623.47;5131199;27;20495;-30
2022/04/02 11:19:53;;;;;;;3.05;1.08;;;;;;;24.88;27.24;98626.94;5112712;27;20100;-32
2022/04/02 11:21:35;;;;;;;4.65;1.30;;;;;;;24.36;29.43;98623.97;5131107;27;20030;-35
2022/04/02 11:24:07;;;;;;;3.90;1.23;;;;;;;23.94;28.90;98623.50;5112447;27;20035;-32
2022/04/02 11:26:36;;;;;;;3.72;1.40;;;;;;;23.98;28.41;98616.22;5130732;27;20027;-30
2022/04/02 11:29:03;;;;;;;2.83;1.08;;;;;;;24.27;28.38;98613.22;5112147;27;20031;-32
2022/04/02 11:31:29;;;;;;;3.15;1.10;;;;;;;24.12;27.81;98588.63;5112537;27;20079;-29
2022/04/02 11:33:57;;;;;;;4.68;1.17;;;;;;;23.98;27.87;98603.41;5111994;27;20074;-30
2022/04/02 11:36:46;;;;;;;2.17;1.00;;;;;;;24.20;28.88;98598.59;5131069;27;20050;-32
2022/04/02 11:39:18;;;;;;;4.30;1.00;;;;;;;24.62;28.11;98581.84;5130605;27;20063;-31
2022/04/02 11:41:45;;;;;;;3.95;1.00;;;;;;;24.74;29.75;98594.63;5112228;27;20046;-33